Hlavní strana
METAR-TAF:

METAR-TAF

Letiště :

Addis Abeba, Etiopie

zeměpisná šířka: 08-59N, zeměpisná délka: 038-48E, výška: 2355 m

Aktuální stav počasí

Zpráva byla vytvořena před 23 minutami, v 07:00 UTC
Severovýchodní vítr 3 kt
Teplota 18°C
Vlhkost vzduchu 68%
Tlak 1028 hPa
Viditelnost 10 km a více
Skoro jasno ve výšce 2500 ft

METAR: HAAB 190700Z 05003KT 9999 FEW025 18/12 Q1028 NOSIG

Čas: 10:23 (07:23 UTC)

Předpověď počasí

Zpráva byla vytvořena před 3 hodinami a 53 minutami, v 03:30 UTC
Předpověď platná od 19 v 06 UTC do 20 v 12 UTC
Jihovýchodní vítr 8 kt
Viditelnost 10 km a více
Oblačno až skoro zataženo ve výšce 3000 ft
Polojasno ve výšce 8000 ft
Změna
od 19 v 06 UTC do 19 v 09 UTC
Viditelnost: 9000 m
Polojasno ve výšce 2200 ft
Oblačno až skoro zataženo ve výšce 4000 ft
slabý déšť,

TAF: HAAB 190330Z 1906/2012 14008KT 9999 BKN030 SCT080 BECMG 1906/1909 9000 -RA SCT022 BKN040

Stav a předpovědi počasí z více než 4 000 letišť (zprávy METAR a TAF).

Červené a žluté tečky na mapě představují dostupné meteorologické stanice.

Když kurzor umístíte na tečku, zobrazí se název stanice.

Pak kliknutím zobrazíte stav a předpověď počasí.

Chcete-li změnit mapu, kliknutím na zelené tlačítko se znaménkem +mapu přiblížíte, kliknutím na zelené tlačítko se znaménkem – mapu oddálíte a kliknutím na zelené šipky přejdete na sousední mapy.


METAR-TAF: